sensor_id;sensor_type;location;lat;lon;timestamp;P1;durP1;ratioP1;P2;durP2;ratioP2
16994;SDS011;8614;48.522;9.206;2023-04-01T02:01:16;7.60;;;7.20;;
16994;SDS011;8614;48.522;9.206;2023-04-01T02:03:45;8.03;;;7.60;;
16994;SDS011;8614;48.522;9.206;2023-04-01T02:06:14;7.80;;;7.40;;
16994;SDS011;8614;48.522;9.206;2023-04-01T02:08:44;7.97;;;7.57;;
16994;SDS011;8614;48.522;9.206;2023-04-01T02:11:13;7.80;;;7.40;;
16994;SDS011;8614;48.522;9.206;2023-04-01T02:13:47;7.40;;;7.00;;
16994;SDS011;8614;48.522;9.206;2023-04-01T02:16:20;7.80;;;7.30;;
16994;SDS011;8614;48.522;9.206;2023-04-01T02:18:53;7.50;;;7.10;;
16994;SDS011;8614;48.522;9.206;2023-04-01T02:21:23;7.43;;;7.07;;
16994;SDS011;8614;48.522;9.206;2023-04-01T02:23:54;7.83;;;7.40;;
16994;SDS011;8614;48.522;9.206;2023-04-01T02:26:22;7.90;;;7.40;;
16994;SDS011;8614;48.522;9.206;2023-04-01T02:28:51;8.10;;;7.60;;
16994;SDS011;8614;48.522;9.206;2023-04-01T02:31:21;7.50;;;7.10;;
16994;SDS011;8614;48.522;9.206;2023-04-01T02:33:48;7.67;;;7.27;;
16994;SDS011;8614;48.522;9.206;2023-04-01T02:36:16;7.63;;;7.17;;
16994;SDS011;8614;48.522;9.206;2023-04-01T02:38:44;7.60;;;7.20;;
16994;SDS011;8614;48.522;9.206;2023-04-01T02:41:12;7.00;;;6.70;;
16994;SDS011;8614;48.522;9.206;2023-04-01T02:43:39;6.80;;;6.50;;
16994;SDS011;8614;48.522;9.206;2023-04-01T02:46:06;7.00;;;6.70;;
16994;SDS011;8614;48.522;9.206;2023-04-01T02:48:34;7.50;;;7.10;;
16994;SDS011;8614;48.522;9.206;2023-04-01T02:51:01;7.07;;;6.77;;
16994;SDS011;8614;48.522;9.206;2023-04-01T02:53:29;7.60;;;7.20;;
16994;SDS011;8614;48.522;9.206;2023-04-01T02:55:55;7.47;;;7.07;;
16994;SDS011;8614;48.522;9.206;2023-04-01T02:58:22;7.67;;;7.27;;
16994;SDS011;8614;48.522;9.206;2023-04-01T03:00:49;7.93;;;7.50;;
16994;SDS011;8614;48.522;9.206;2023-04-01T03:03:16;7.80;;;7.30;;
16994;SDS011;8614;48.522;9.206;2023-04-01T03:05:45;8.20;;;7.80;;
16994;SDS011;8614;48.522;9.206;2023-04-01T03:08:11;8.40;;;8.00;;
16994;SDS011;8614;48.522;9.206;2023-04-01T03:10:38;8.30;;;7.80;;
16994;SDS011;8614;48.522;9.206;2023-04-01T03:13:06;8.10;;;7.60;;
16994;SDS011;8614;48.522;9.206;2023-04-01T03:15:33;8.10;;;7.60;;
16994;SDS011;8614;48.522;9.206;2023-04-01T03:18:00;8.30;;;7.80;;
16994;SDS011;8614;48.522;9.206;2023-04-01T03:20:27;8.10;;;7.70;;
16994;SDS011;8614;48.522;9.206;2023-04-01T03:22:55;8.20;;;7.80;;
16994;SDS011;8614;48.522;9.206;2023-04-01T03:25:22;8.20;;;7.80;;
16994;SDS011;8614;48.522;9.206;2023-04-01T03:27:49;8.40;;;8.00;;
16994;SDS011;8614;48.522;9.206;2023-04-01T03:30:16;8.80;;;8.30;;
16994;SDS011;8614;48.522;9.206;2023-04-01T03:32:48;8.40;;;8.00;;
16994;SDS011;8614;48.522;9.206;2023-04-01T03:35:15;8.63;;;8.13;;
16994;SDS011;8614;48.522;9.206;2023-04-01T03:37:44;7.70;;;7.30;;
16994;SDS011;8614;48.522;9.206;2023-04-01T03:40:13;8.30;;;7.90;;
16994;SDS011;8614;48.522;9.206;2023-04-01T03:42:39;8.40;;;8.00;;
16994;SDS011;8614;48.522;9.206;2023-04-01T03:45:07;8.43;;;8.03;;
16994;SDS011;8614;48.522;9.206;2023-04-01T03:47:35;7.87;;;7.47;;
16994;SDS011;8614;48.522;9.206;2023-04-01T03:50:02;8.10;;;7.70;;
16994;SDS011;8614;48.522;9.206;2023-04-01T03:52:28;7.93;;;7.50;;
16994;SDS011;8614;48.522;9.206;2023-04-01T03:54:55;8.13;;;7.70;;
16994;SDS011;8614;48.522;9.206;2023-04-01T03:57:24;8.40;;;8.00;;
16994;SDS011;8614;48.522;9.206;2023-04-01T03:59:53;8.70;;;8.30;;
16994;SDS011;8614;48.522;9.206;2023-04-01T04:02:20;8.90;;;8.40;;
16994;SDS011;8614;48.522;9.206;2023-04-01T04:04:47;8.40;;;8.00;;
16994;SDS011;8614;48.522;9.206;2023-04-01T04:07:13;8.40;;;7.90;;
16994;SDS011;8614;48.522;9.206;2023-04-01T04:10:12;8.20;;;7.80;;
16994;SDS011;8614;48.522;9.206;2023-04-01T04:12:41;7.70;;;7.30;;
16994;SDS011;8614;48.522;9.206;2023-04-01T04:15:09;7.90;;;7.50;;
16994;SDS011;8614;48.522;9.206;2023-04-01T04:17:36;8.40;;;8.00;;
16994;SDS011;8614;48.522;9.206;2023-04-01T04:20:03;8.50;;;8.00;;
16994;SDS011;8614;48.522;9.206;2023-04-01T04:22:31;8.93;;;8.43;;
16994;SDS011;8614;48.522;9.206;2023-04-01T04:24:58;8.80;;;8.30;;
16994;SDS011;8614;48.522;9.206;2023-04-01T04:27:25;8.80;;;8.30;;
16994;SDS011;8614;48.522;9.206;2023-04-01T04:30:04;8.93;;;8.43;;
16994;SDS011;8614;48.522;9.206;2023-04-01T04:32:32;9.43;;;8.70;;
16994;SDS011;8614;48.522;9.206;2023-04-01T04:34:59;9.00;;;8.50;;
16994;SDS011;8614;48.522;9.206;2023-04-01T04:37:26;8.93;;;8.40;;
16994;SDS011;8614;48.522;9.206;2023-04-01T04:39:53;9.37;;;8.77;;
16994;SDS011;8614;48.522;9.206;2023-04-01T04:42:20;9.07;;;8.47;;
16994;SDS011;8614;48.522;9.206;2023-04-01T04:44:49;8.70;;;8.20;;
16994;SDS011;8614;48.522;9.206;2023-04-01T04:47:17;9.40;;;8.80;;
16994;SDS011;8614;48.522;9.206;2023-04-01T04:49:44;9.23;;;8.63;;
16994;SDS011;8614;48.522;9.206;2023-04-01T04:52:11;9.37;;;8.80;;
16994;SDS011;8614;48.522;9.206;2023-04-01T04:54:38;9.80;;;9.17;;
16994;SDS011;8614;48.522;9.206;2023-04-01T04:57:05;9.40;;;8.90;;
16994;SDS011;8614;48.522;9.206;2023-04-01T04:59:38;10.00;;;9.40;;
16994;SDS011;8614;48.522;9.206;2023-04-01T05:02:10;9.70;;;9.00;;
16994;SDS011;8614;48.522;9.206;2023-04-01T05:04:39;9.20;;;8.70;;
16994;SDS011;8614;48.522;9.206;2023-04-01T05:07:08;9.30;;;8.60;;
16994;SDS011;8614;48.522;9.206;2023-04-01T05:09:35;9.00;;;8.50;;
16994;SDS011;8614;48.522;9.206;2023-04-01T05:12:03;8.70;;;8.20;;
16994;SDS011;8614;48.522;9.206;2023-04-01T05:14:50;8.53;;;8.07;;
16994;SDS011;8614;48.522;9.206;2023-04-01T05:17:16;8.80;;;8.30;;
16994;SDS011;8614;48.522;9.206;2023-04-01T05:19:45;10.07;;;9.47;;
16994;SDS011;8614;48.522;9.206;2023-04-01T05:22:11;8.40;;;7.90;;
16994;SDS011;8614;48.522;9.206;2023-04-01T05:24:39;9.20;;;8.70;;
16994;SDS011;8614;48.522;9.206;2023-04-01T05:27:06;9.60;;;9.00;;
16994;SDS011;8614;48.522;9.206;2023-04-01T05:29:36;9.20;;;8.70;;
16994;SDS011;8614;48.522;9.206;2023-04-01T05:32:06;9.10;;;8.50;;
16994;SDS011;8614;48.522;9.206;2023-04-01T05:34:35;9.30;;;8.70;;
16994;SDS011;8614;48.522;9.206;2023-04-01T05:37:03;9.30;;;8.80;;
16994;SDS011;8614;48.522;9.206;2023-04-01T05:39:30;9.00;;;8.50;;
16994;SDS011;8614;48.522;9.206;2023-04-01T05:41:57;8.83;;;8.33;;
16994;SDS011;8614;48.522;9.206;2023-04-01T05:44:24;8.93;;;8.30;;
16994;SDS011;8614;48.522;9.206;2023-04-01T05:47:23;8.20;;;7.80;;
16994;SDS011;8614;48.522;9.206;2023-04-01T05:49:49;7.40;;;7.00;;
16994;SDS011;8614;48.522;9.206;2023-04-01T05:52:18;7.50;;;7.10;;
16994;SDS011;8614;48.522;9.206;2023-04-01T05:54:45;1.90;;;1.80;;
16994;SDS011;8614;48.522;9.206;2023-04-01T05:57:12;1.90;;;1.80;;
16994;SDS011;8614;48.522;9.206;2023-04-01T05:59:39;6.07;;;5.77;;
16994;SDS011;8614;48.522;9.206;2023-04-01T06:02:06;2.20;;;2.00;;
16994;SDS011;8614;48.522;9.206;2023-04-01T06:04:37;8.23;;;7.73;;
16994;SDS011;8614;48.522;9.206;2023-04-01T06:07:08;8.27;;;7.77;;
16994;SDS011;8614;48.522;9.206;2023-04-01T06:09:39;8.83;;;8.20;;
16994;SDS011;8614;48.522;9.206;2023-04-01T06:12:11;8.17;;;7.70;;
16994;SDS011;8614;48.522;9.206;2023-04-01T06:14:56;7.10;;;6.70;;
16994;SDS011;8614;48.522;9.206;2023-04-01T06:17:41;5.70;;;5.37;;
16994;SDS011;8614;48.522;9.206;2023-04-01T06:20:19;4.90;;;4.70;;
16994;SDS011;8614;48.522;9.206;2023-04-01T06:25:55;2.37;;;2.20;;
16994;SDS011;8614;48.522;9.206;2023-04-01T06:32:05;7.13;;;6.63;;
16994;SDS011;8614;48.522;9.206;2023-04-01T06:34:46;7.40;;;6.90;;
16994;SDS011;8614;48.522;9.206;2023-04-01T06:37:33;6.77;;;6.37;;
16994;SDS011;8614;48.522;9.206;2023-04-01T06:40:17;7.77;;;7.27;;
16994;SDS011;8614;48.522;9.206;2023-04-01T06:43:10;6.80;;;6.33;;
16994;SDS011;8614;48.522;9.206;2023-04-01T06:46:05;6.00;;;5.60;;
16994;SDS011;8614;48.522;9.206;2023-04-01T06:49:02;5.90;;;5.53;;
16994;SDS011;8614;48.522;9.206;2023-04-01T06:51:58;7.10;;;6.70;;
16994;SDS011;8614;48.522;9.206;2023-04-01T06:55:00;7.67;;;7.27;;
16994;SDS011;8614;48.522;9.206;2023-04-01T06:58:01;9.73;;;9.03;;
16994;SDS011;8614;48.522;9.206;2023-04-01T07:00:35;8.00;;;7.60;;
16994;SDS011;8614;48.522;9.206;2023-04-01T07:03:05;7.90;;;7.50;;
16994;SDS011;8614;48.522;9.206;2023-04-01T07:05:40;8.00;;;7.40;;
16994;SDS011;8614;48.522;9.206;2023-04-01T07:08:10;7.80;;;7.30;;
16994;SDS011;8614;48.522;9.206;2023-04-01T07:10:41;8.10;;;7.60;;
16994;SDS011;8614;48.522;9.206;2023-04-01T07:13:33;3.17;;;1.80;;
16994;SDS011;8614;48.522;9.206;2023-04-01T07:16:15;2.40;;;2.20;;
16994;SDS011;8614;48.522;9.206;2023-04-01T07:18:47;2.10;;;1.93;;
16994;SDS011;8614;48.522;9.206;2023-04-01T07:21:22;2.10;;;1.90;;
16994;SDS011;8614;48.522;9.206;2023-04-01T07:23:56;2.07;;;1.90;;
16994;SDS011;8614;48.522;9.206;2023-04-01T07:26:57;2.10;;;2.00;;
16994;SDS011;8614;48.522;9.206;2023-04-01T07:29:27;2.80;;;2.07;;
16994;SDS011;8614;48.522;9.206;2023-04-01T07:32:09;2.03;;;1.83;;
16994;SDS011;8614;48.522;9.206;2023-04-01T07:34:45;2.07;;;1.80;;
16994;SDS011;8614;48.522;9.206;2023-04-01T07:37:23;2.43;;;2.10;;
16994;SDS011;8614;48.522;9.206;2023-04-01T07:40:00;2.13;;;1.97;;
16994;SDS011;8614;48.522;9.206;2023-04-01T07:42:43;2.13;;;2.00;;
16994;SDS011;8614;48.522;9.206;2023-04-01T07:45:22;2.33;;;1.80;;
16994;SDS011;8614;48.522;9.206;2023-04-01T07:48:00;2.10;;;1.90;;
16994;SDS011;8614;48.522;9.206;2023-04-01T07:50:36;7.90;;;7.30;;
16994;SDS011;8614;48.522;9.206;2023-04-01T07:53:11;8.13;;;7.53;;
16994;SDS011;8614;48.522;9.206;2023-04-01T07:55:49;2.37;;;2.10;;
16994;SDS011;8614;48.522;9.206;2023-04-01T07:58:21;2.27;;;1.97;;
16994;SDS011;8614;48.522;9.206;2023-04-01T08:00:56;5.30;;;5.00;;
16994;SDS011;8614;48.522;9.206;2023-04-01T08:03:38;6.20;;;5.80;;
16994;SDS011;8614;48.522;9.206;2023-04-01T08:06:18;6.40;;;6.00;;
16994;SDS011;8614;48.522;9.206;2023-04-01T08:08:55;7.20;;;6.80;;
16994;SDS011;8614;48.522;9.206;2023-04-01T08:11:51;7.43;;;7.03;;
16994;SDS011;8614;48.522;9.206;2023-04-01T08:14:48;8.63;;;7.90;;
16994;SDS011;8614;48.522;9.206;2023-04-01T08:17:35;8.10;;;7.60;;
16994;SDS011;8614;48.522;9.206;2023-04-01T08:20:21;7.70;;;7.30;;
16994;SDS011;8614;48.522;9.206;2023-04-01T08:22:57;8.07;;;7.57;;
16994;SDS011;8614;48.522;9.206;2023-04-01T08:25:32;8.00;;;7.60;;
16994;SDS011;8614;48.522;9.206;2023-04-01T08:28:08;7.55;;;7.13;;
16994;SDS011;8614;48.522;9.206;2023-04-01T08:30:40;8.30;;;7.80;;
16994;SDS011;8614;48.522;9.206;2023-04-01T08:33:11;8.37;;;7.77;;
16994;SDS011;8614;48.522;9.206;2023-04-01T08:35:45;7.70;;;7.30;;
16994;SDS011;8614;48.522;9.206;2023-04-01T08:38:17;8.00;;;7.40;;
16994;SDS011;8614;48.522;9.206;2023-04-01T08:41:01;7.80;;;7.40;;
16994;SDS011;8614;48.522;9.206;2023-04-01T08:44:12;7.67;;;7.10;;
16994;SDS011;8614;48.522;9.206;2023-04-01T08:47:04;7.50;;;7.10;;
16994;SDS011;8614;48.522;9.206;2023-04-01T08:49:51;7.93;;;7.43;;
16994;SDS011;8614;48.522;9.206;2023-04-01T08:52:49;7.80;;;7.40;;
16994;SDS011;8614;48.522;9.206;2023-04-01T08:55:27;7.33;;;7.00;;
16994;SDS011;8614;48.522;9.206;2023-04-01T08:58:15;7.60;;;7.10;;
16994;SDS011;8614;48.522;9.206;2023-04-01T09:01:31;7.43;;;7.07;;
16994;SDS011;8614;48.522;9.206;2023-04-01T09:04:27;7.53;;;7.13;;
16994;SDS011;8614;48.522;9.206;2023-04-01T09:07:14;7.67;;;7.27;;
16994;SDS011;8614;48.522;9.206;2023-04-01T09:10:11;7.40;;;7.00;;
16994;SDS011;8614;48.522;9.206;2023-04-01T09:13:09;7.60;;;7.20;;
16994;SDS011;8614;48.522;9.206;2023-04-01T09:18:59;8.00;;;7.50;;
16994;SDS011;8614;48.522;9.206;2023-04-01T09:22:09;8.20;;;7.70;;
16994;SDS011;8614;48.522;9.206;2023-04-01T09:27:57;8.77;;;8.27;;
16994;SDS011;8614;48.522;9.206;2023-04-01T09:30:41;8.30;;;7.90;;
16994;SDS011;8614;48.522;9.206;2023-04-01T09:36:46;7.70;;;7.30;;
16994;SDS011;8614;48.522;9.206;2023-04-01T09:39:29;7.90;;;7.50;;
16994;SDS011;8614;48.522;9.206;2023-04-01T09:42:13;8.20;;;7.70;;
16994;SDS011;8614;48.522;9.206;2023-04-01T09:45:04;7.90;;;7.50;;
16994;SDS011;8614;48.522;9.206;2023-04-01T09:47:43;8.00;;;7.60;;
16994;SDS011;8614;48.522;9.206;2023-04-01T09:50:28;8.20;;;7.67;;
16994;SDS011;8614;48.522;9.206;2023-04-01T09:53:04;8.43;;;7.93;;
16994;SDS011;8614;48.522;9.206;2023-04-01T09:56:08;8.50;;;7.90;;
16994;SDS011;8614;48.522;9.206;2023-04-01T10:02:33;8.77;;;8.13;;
16994;SDS011;8614;48.522;9.206;2023-04-01T10:08:32;9.13;;;8.60;;
16994;SDS011;8614;48.522;9.206;2023-04-01T10:14:37;8.70;;;8.30;;
16994;SDS011;8614;48.522;9.206;2023-04-01T10:17:37;8.60;;;8.10;;
16994;SDS011;8614;48.522;9.206;2023-04-01T10:20:38;8.00;;;7.60;;
16994;SDS011;8614;48.522;9.206;2023-04-01T10:23:29;7.50;;;7.10;;
16994;SDS011;8614;48.522;9.206;2023-04-01T10:26:19;7.80;;;7.13;;
16994;SDS011;8614;48.522;9.206;2023-04-01T10:29:32;7.53;;;7.03;;
16994;SDS011;8614;48.522;9.206;2023-04-01T10:32:24;8.23;;;7.73;;
16994;SDS011;8614;48.522;9.206;2023-04-01T10:51:05;8.17;;;7.67;;
16994;SDS011;8614;48.522;9.206;2023-04-01T10:53:49;7.77;;;7.37;;
16994;SDS011;8614;48.522;9.206;2023-04-01T10:57:25;8.40;;;7.90;;
16994;SDS011;8614;48.522;9.206;2023-04-01T11:04:01;8.07;;;7.57;;
16994;SDS011;8614;48.522;9.206;2023-04-01T11:10:25;8.60;;;8.10;;
16994;SDS011;8614;48.522;9.206;2023-04-01T11:13:24;8.00;;;7.60;;
16994;SDS011;8614;48.522;9.206;2023-04-01T11:16:13;8.50;;;8.00;;
16994;SDS011;8614;48.522;9.206;2023-04-01T11:22:10;7.90;;;7.50;;
16994;SDS011;8614;48.522;9.206;2023-04-01T11:25:05;7.70;;;7.30;;
16994;SDS011;8614;48.522;9.206;2023-04-01T11:28:24;8.35;;;7.85;;
16994;SDS011;8614;48.522;9.206;2023-04-01T11:31:29;5.00;;;4.70;;
16994;SDS011;8614;48.522;9.206;2023-04-01T11:34:12;2.35;;;2.25;;
16994;SDS011;8614;48.522;9.206;2023-04-01T11:36:48;8.10;;;7.70;;
16994;SDS011;8614;48.522;9.206;2023-04-01T11:39:29;7.90;;;7.50;;
16994;SDS011;8614;48.522;9.206;2023-04-01T11:42:03;8.10;;;7.60;;
16994;SDS011;8614;48.522;9.206;2023-04-01T11:45:01;8.10;;;7.60;;
16994;SDS011;8614;48.522;9.206;2023-04-01T11:47:46;8.03;;;7.63;;
16994;SDS011;8614;48.522;9.206;2023-04-01T11:50:24;8.93;;;8.43;;
16994;SDS011;8614;48.522;9.206;2023-04-01T11:53:02;7.00;;;6.60;;
16994;SDS011;8614;48.522;9.206;2023-04-01T11:55:52;6.97;;;6.60;;
16994;SDS011;8614;48.522;9.206;2023-04-01T12:01:54;7.90;;;7.50;;
16994;SDS011;8614;48.522;9.206;2023-04-01T12:07:37;4.97;;;4.67;;
16994;SDS011;8614;48.522;9.206;2023-04-01T12:10:33;9.13;;;8.63;;
16994;SDS011;8614;48.522;9.206;2023-04-01T12:13:07;9.20;;;8.60;;
16994;SDS011;8614;48.522;9.206;2023-04-01T12:15:48;6.23;;;5.80;;
16994;SDS011;8614;48.522;9.206;2023-04-01T12:18:23;4.77;;;4.47;;
16994;SDS011;8614;48.522;9.206;2023-04-01T12:21:00;7.97;;;7.47;;
16994;SDS011;8614;48.522;9.206;2023-04-01T12:23:40;8.33;;;7.87;;
16994;SDS011;8614;48.522;9.206;2023-04-01T12:26:35;7.50;;;7.10;;
16994;SDS011;8614;48.522;9.206;2023-04-01T12:29:23;7.40;;;7.00;;
16994;SDS011;8614;48.522;9.206;2023-04-01T12:32:15;8.80;;;8.30;;
16994;SDS011;8614;48.522;9.206;2023-04-01T12:37:41;7.40;;;7.00;;
16994;SDS011;8614;48.522;9.206;2023-04-01T12:40:19;7.30;;;6.80;;
16994;SDS011;8614;48.522;9.206;2023-04-01T12:42:57;7.30;;;6.90;;
16994;SDS011;8614;48.522;9.206;2023-04-01T12:45:33;7.47;;;7.07;;
16994;SDS011;8614;48.522;9.206;2023-04-01T12:51:22;7.40;;;7.00;;
16994;SDS011;8614;48.522;9.206;2023-04-01T12:54:08;7.30;;;6.90;;
16994;SDS011;8614;48.522;9.206;2023-04-01T12:56:55;7.27;;;6.77;;
16994;SDS011;8614;48.522;9.206;2023-04-01T12:59:51;7.00;;;6.70;;
16994;SDS011;8614;48.522;9.206;2023-04-01T13:02:31;7.20;;;6.90;;
16994;SDS011;8614;48.522;9.206;2023-04-01T13:05:19;7.40;;;7.00;;
16994;SDS011;8614;48.522;9.206;2023-04-01T13:08:06;6.83;;;6.53;;
16994;SDS011;8614;48.522;9.206;2023-04-01T13:10:46;7.40;;;7.00;;
16994;SDS011;8614;48.522;9.206;2023-04-01T13:13:41;7.70;;;7.30;;
16994;SDS011;8614;48.522;9.206;2023-04-01T13:16:31;7.17;;;6.77;;
16994;SDS011;8614;48.522;9.206;2023-04-01T13:19:04;7.50;;;7.00;;
16994;SDS011;8614;48.522;9.206;2023-04-01T13:21:38;7.00;;;6.60;;
16994;SDS011;8614;48.522;9.206;2023-04-01T13:24:22;7.00;;;6.60;;
16994;SDS011;8614;48.522;9.206;2023-04-01T13:26:57;6.90;;;6.50;;
16994;SDS011;8614;48.522;9.206;2023-04-01T13:29:32;6.80;;;6.47;;
16994;SDS011;8614;48.522;9.206;2023-04-01T13:32:06;6.90;;;6.53;;
16994;SDS011;8614;48.522;9.206;2023-04-01T13:34:52;6.93;;;6.63;;
16994;SDS011;8614;48.522;9.206;2023-04-01T13:37:42;6.80;;;6.50;;
16994;SDS011;8614;48.522;9.206;2023-04-01T13:40:26;7.00;;;6.70;;
16994;SDS011;8614;48.522;9.206;2023-04-01T13:43:03;7.03;;;6.53;;
16994;SDS011;8614;48.522;9.206;2023-04-01T13:45:38;7.20;;;6.80;;
16994;SDS011;8614;48.522;9.206;2023-04-01T13:48:22;7.00;;;6.60;;
16994;SDS011;8614;48.522;9.206;2023-04-01T13:51:07;7.07;;;6.77;;
16994;SDS011;8614;48.522;9.206;2023-04-01T13:53:56;6.83;;;6.53;;
16994;SDS011;8614;48.522;9.206;2023-04-01T13:56:39;7.10;;;6.70;;
16994;SDS011;8614;48.522;9.206;2023-04-01T13:59:27;7.20;;;6.80;;
16994;SDS011;8614;48.522;9.206;2023-04-01T14:02:13;6.90;;;6.50;;
16994;SDS011;8614;48.522;9.206;2023-04-01T14:05:13;7.07;;;6.67;;
16994;SDS011;8614;48.522;9.206;2023-04-01T14:07:50;7.67;;;7.27;;
16994;SDS011;8614;48.522;9.206;2023-04-01T14:10:28;7.40;;;7.00;;
16994;SDS011;8614;48.522;9.206;2023-04-01T14:13:03;7.40;;;7.00;;
16994;SDS011;8614;48.522;9.206;2023-04-01T14:15:41;7.40;;;7.00;;
16994;SDS011;8614;48.522;9.206;2023-04-01T14:18:24;7.20;;;6.80;;
16994;SDS011;8614;48.522;9.206;2023-04-01T14:21:11;7.00;;;6.60;;
16994;SDS011;8614;48.522;9.206;2023-04-01T14:29:05;7.20;;;6.80;;
16994;SDS011;8614;48.522;9.206;2023-04-01T14:31:53;7.40;;;7.00;;
16994;SDS011;8614;48.522;9.206;2023-04-01T14:34:32;7.13;;;6.73;;
16994;SDS011;8614;48.522;9.206;2023-04-01T14:37:11;7.60;;;7.20;;
16994;SDS011;8614;48.522;9.206;2023-04-01T14:43:01;7.00;;;6.70;;
16994;SDS011;8614;48.522;9.206;2023-04-01T14:49:02;7.20;;;6.80;;
16994;SDS011;8614;48.522;9.206;2023-04-01T14:51:40;7.40;;;6.90;;
16994;SDS011;8614;48.522;9.206;2023-04-01T14:54:08;7.03;;;6.70;;
16994;SDS011;8614;48.522;9.206;2023-04-01T14:56:47;7.17;;;6.83;;
16994;SDS011;8614;48.522;9.206;2023-04-01T14:59:17;7.10;;;6.70;;
16994;SDS011;8614;48.522;9.206;2023-04-01T15:01:58;6.80;;;6.50;;
16994;SDS011;8614;48.522;9.206;2023-04-01T15:04:44;7.00;;;6.60;;
16994;SDS011;8614;48.522;9.206;2023-04-01T15:07:21;6.90;;;6.50;;
16994;SDS011;8614;48.522;9.206;2023-04-01T15:10:09;6.97;;;6.57;;
16994;SDS011;8614;48.522;9.206;2023-04-01T15:12:47;6.97;;;6.57;;
16994;SDS011;8614;48.522;9.206;2023-04-01T15:15:27;7.10;;;6.70;;
16994;SDS011;8614;48.522;9.206;2023-04-01T15:18:08;6.90;;;6.50;;
16994;SDS011;8614;48.522;9.206;2023-04-01T15:20:44;6.80;;;6.40;;
16994;SDS011;8614;48.522;9.206;2023-04-01T15:23:39;6.90;;;6.50;;
16994;SDS011;8614;48.522;9.206;2023-04-01T15:26:25;7.03;;;6.53;;
16994;SDS011;8614;48.522;9.206;2023-04-01T15:29:20;7.10;;;6.70;;
16994;SDS011;8614;48.522;9.206;2023-04-01T15:32:10;7.00;;;6.60;;
16994;SDS011;8614;48.522;9.206;2023-04-01T15:34:50;6.93;;;6.53;;
16994;SDS011;8614;48.522;9.206;2023-04-01T15:37:27;6.77;;;6.43;;
16994;SDS011;8614;48.522;9.206;2023-04-01T15:40:07;7.17;;;6.80;;
16994;SDS011;8614;48.522;9.206;2023-04-01T15:42:47;6.73;;;6.43;;
16994;SDS011;8614;48.522;9.206;2023-04-01T15:45:31;6.93;;;6.53;;
16994;SDS011;8614;48.522;9.206;2023-04-01T15:48:14;7.27;;;6.87;;
16994;SDS011;8614;48.522;9.206;2023-04-01T15:51:02;7.27;;;6.87;;
16994;SDS011;8614;48.522;9.206;2023-04-01T15:53:47;7.33;;;6.93;;
16994;SDS011;8614;48.522;9.206;2023-04-01T15:56:50;7.30;;;6.90;;
16994;SDS011;8614;48.522;9.206;2023-04-01T15:59:37;6.83;;;6.53;;
16994;SDS011;8614;48.522;9.206;2023-04-01T16:02:21;7.30;;;6.90;;
16994;SDS011;8614;48.522;9.206;2023-04-01T16:04:58;7.60;;;7.10;;
16994;SDS011;8614;48.522;9.206;2023-04-01T16:10:38;7.90;;;7.40;;
16994;SDS011;8614;48.522;9.206;2023-04-01T16:16:14;7.40;;;7.00;;
16994;SDS011;8614;48.522;9.206;2023-04-01T16:18:56;7.10;;;6.70;;
16994;SDS011;8614;48.522;9.206;2023-04-01T16:21:35;7.50;;;7.10;;
16994;SDS011;8614;48.522;9.206;2023-04-01T16:24:10;7.20;;;6.80;;
16994;SDS011;8614;48.522;9.206;2023-04-01T16:26:44;7.20;;;6.80;;
16994;SDS011;8614;48.522;9.206;2023-04-01T16:29:19;7.30;;;6.90;;
16994;SDS011;8614;48.522;9.206;2023-04-01T16:31:52;7.00;;;6.60;;
16994;SDS011;8614;48.522;9.206;2023-04-01T16:34:27;7.20;;;6.80;;
16994;SDS011;8614;48.522;9.206;2023-04-01T16:37:00;8.03;;;7.53;;
16994;SDS011;8614;48.522;9.206;2023-04-01T16:39:35;7.70;;;7.30;;
16994;SDS011;8614;48.522;9.206;2023-04-01T16:45:15;7.20;;;6.80;;
16994;SDS011;8614;48.522;9.206;2023-04-01T16:47:48;7.70;;;7.30;;
16994;SDS011;8614;48.522;9.206;2023-04-01T16:50:19;7.30;;;6.90;;
16994;SDS011;8614;48.522;9.206;2023-04-01T16:52:53;7.00;;;6.60;;
16994;SDS011;8614;48.522;9.206;2023-04-01T16:55:35;6.70;;;6.30;;
16994;SDS011;8614;48.522;9.206;2023-04-01T16:58:08;6.30;;;6.00;;
16994;SDS011;8614;48.522;9.206;2023-04-01T17:00:40;6.80;;;6.40;;
16994;SDS011;8614;48.522;9.206;2023-04-01T17:03:15;6.50;;;6.00;;
16994;SDS011;8614;48.522;9.206;2023-04-01T17:05:49;7.00;;;6.60;;
16994;SDS011;8614;48.522;9.206;2023-04-01T17:08:30;7.00;;;6.60;;
16994;SDS011;8614;48.522;9.206;2023-04-01T17:11:09;7.10;;;6.70;;
16994;SDS011;8614;48.522;9.206;2023-04-01T17:13:47;6.90;;;6.50;;
16994;SDS011;8614;48.522;9.206;2023-04-01T17:16:36;7.13;;;6.73;;
16994;SDS011;8614;48.522;9.206;2023-04-01T17:22:31;6.80;;;6.40;;
16994;SDS011;8614;48.522;9.206;2023-04-01T17:25:09;7.40;;;7.00;;
16994;SDS011;8614;48.522;9.206;2023-04-01T17:27:57;6.90;;;6.60;;
16994;SDS011;8614;48.522;9.206;2023-04-01T17:30:31;6.90;;;6.50;;
16994;SDS011;8614;48.522;9.206;2023-04-01T17:33:10;6.80;;;6.50;;
16994;SDS011;8614;48.522;9.206;2023-04-01T17:35:54;7.10;;;6.70;;
16994;SDS011;8614;48.522;9.206;2023-04-01T17:38:28;6.90;;;6.50;;
16994;SDS011;8614;48.522;9.206;2023-04-01T17:41:08;6.90;;;6.50;;
16994;SDS011;8614;48.522;9.206;2023-04-01T17:43:43;7.20;;;6.80;;
16994;SDS011;8614;48.522;9.206;2023-04-01T17:46:27;7.30;;;6.80;;
16994;SDS011;8614;48.522;9.206;2023-04-01T17:49:02;6.93;;;6.50;;
16994;SDS011;8614;48.522;9.206;2023-04-01T17:51:46;7.20;;;6.80;;
16994;SDS011;8614;48.522;9.206;2023-04-01T17:54:23;6.70;;;6.30;;
16994;SDS011;8614;48.522;9.206;2023-04-01T17:57:00;6.83;;;6.43;;
16994;SDS011;8614;48.522;9.206;2023-04-01T17:59:53;7.20;;;6.70;;
16994;SDS011;8614;48.522;9.206;2023-04-01T18:02:27;6.80;;;6.40;;
16994;SDS011;8614;48.522;9.206;2023-04-01T18:07:56;7.53;;;7.03;;
16994;SDS011;8614;48.522;9.206;2023-04-01T18:10:35;7.30;;;6.80;;
16994;SDS011;8614;48.522;9.206;2023-04-01T18:16:07;7.63;;;7.13;;
16994;SDS011;8614;48.522;9.206;2023-04-01T18:18:46;7.30;;;6.80;;
16994;SDS011;8614;48.522;9.206;2023-04-01T18:21:23;7.30;;;6.90;;
16994;SDS011;8614;48.522;9.206;2023-04-01T18:23:56;6.93;;;6.53;;
16994;SDS011;8614;48.522;9.206;2023-04-01T18:26:28;6.80;;;6.40;;
16994;SDS011;8614;48.522;9.206;2023-04-01T18:28:57;7.30;;;6.80;;
16994;SDS011;8614;48.522;9.206;2023-04-01T18:31:34;7.00;;;6.60;;
16994;SDS011;8614;48.522;9.206;2023-04-01T18:34:06;6.93;;;6.50;;
16994;SDS011;8614;48.522;9.206;2023-04-01T18:36:38;7.20;;;6.70;;
16994;SDS011;8614;48.522;9.206;2023-04-01T18:39:11;6.90;;;6.50;;
16994;SDS011;8614;48.522;9.206;2023-04-01T18:41:43;7.37;;;6.87;;
16994;SDS011;8614;48.522;9.206;2023-04-01T18:44:24;7.53;;;7.03;;
16994;SDS011;8614;48.522;9.206;2023-04-01T18:47:07;7.17;;;6.70;;
16994;SDS011;8614;48.522;9.206;2023-04-01T18:49:58;6.93;;;6.43;;
16994;SDS011;8614;48.522;9.206;2023-04-01T18:52:35;7.10;;;6.70;;
16994;SDS011;8614;48.522;9.206;2023-04-01T18:55:18;7.10;;;6.70;;
16994;SDS011;8614;48.522;9.206;2023-04-01T18:57:58;7.30;;;6.80;;
16994;SDS011;8614;48.522;9.206;2023-04-01T19:00:46;7.10;;;6.70;;
16994;SDS011;8614;48.522;9.206;2023-04-01T19:03:21;7.20;;;6.80;;
16994;SDS011;8614;48.522;9.206;2023-04-01T19:05:55;7.13;;;6.67;;
16994;SDS011;8614;48.522;9.206;2023-04-01T19:08:28;7.23;;;6.73;;
16994;SDS011;8614;48.522;9.206;2023-04-01T19:11:00;7.20;;;6.80;;
16994;SDS011;8614;48.522;9.206;2023-04-01T19:13:36;7.03;;;6.63;;
16994;SDS011;8614;48.522;9.206;2023-04-01T19:16:12;7.17;;;6.77;;
16994;SDS011;8614;48.522;9.206;2023-04-01T19:18:54;7.10;;;6.70;;
16994;SDS011;8614;48.522;9.206;2023-04-01T19:21:33;7.90;;;7.43;;
16994;SDS011;8614;48.522;9.206;2023-04-01T19:24:09;7.00;;;6.60;;
16994;SDS011;8614;48.522;9.206;2023-04-01T19:26:45;7.17;;;6.77;;
16994;SDS011;8614;48.522;9.206;2023-04-01T19:29:18;7.67;;;7.27;;
16994;SDS011;8614;48.522;9.206;2023-04-01T19:31:54;7.10;;;6.70;;
16994;SDS011;8614;48.522;9.206;2023-04-01T19:34:36;7.60;;;7.10;;
16994;SDS011;8614;48.522;9.206;2023-04-01T19:37:20;7.17;;;6.73;;
16994;SDS011;8614;48.522;9.206;2023-04-01T19:39:54;7.17;;;6.77;;
16994;SDS011;8614;48.522;9.206;2023-04-01T19:42:28;7.70;;;7.20;;
16994;SDS011;8614;48.522;9.206;2023-04-01T19:45:07;7.50;;;7.10;;